Flight report

Adam Łagoda
(LOT117)
EPWA - EPWA
()
B190
()
2018-05-24
Flight time:
00h04m
Distance:
2 Nm
Pax:
Touchdown:
ft/min
Fuel used:
1129 kg

Komentarz od sprawdzającego PIREP:

 
Traktujemy jako testowy
 

[2018/05/24 09:03:00]
Flight IATA:LO9501
Pilot Number:117
Company ICAO:LOT
Aircraft Type:B190
Departing Airport: EPWA
Destination Airport: EPWA
Alternate Airport:EPKK
Online: No
Route:TEST
Flight Level:F110
No Slew and time accel
No pause
Detect pilot in Cockpit between each 0 and 0 minutes
09:03 Zero fuel Weight: 6446 Kg, Fuel Weight: 1211 Kg
09:03 VATSIM:EPWA 241930Z 03007KT CAVOK 21/10 Q1022 NOSIG
09:03 VATSIM:EPWA 241930Z 03007KT CAVOK 21/10 Q1022 NOSIG
09:05 Parking Brakes off
09:07 VR= 075 Knots
09:07 V2= 076 Knots
09:07 Take-off
09:07 Take off Weight: 987 Kg
09:07 Wind: 000º @ 000 Knots Heading: 151º
09:07 POS N52º 09´ 59´´ E020º 57´ 59´´
09:07 N11 87 N12 00
09:07 Flaps:1 at 76 Knots
09:07 Flaps:0 at 76 Knots
09:09 VATSIM:EPWA 241900Z 03007KT CAVOK 21/09 Q1022 NOSIG=
09:09 Land
09:09 Wind:000º@000 Knots
09:09 Heading: 060º
09:09 Flight Duration: 00:02
09:09 Landing Weight: 986 Kg
09:09 POS N52º 08´ 49´´ E021º 00´ 49´´
09:09 Parking brakes on
09:09 Block to Block Duration: 00:04
09:09 Final Fuel: 82 Kg
09:09 Spent Fuel: 1129 Kg
09:09 Flight Length: 02 NM
09:09 TOD Land Length: 02 NM